Поиск раздач ( Как пользоваться поиском? )Где именно
Выбор разделаВыбор форматаГод выходаФильтр поискаСортировка результата
Найдено 2030 раздач
Комм.РазмерСидовПировЗалитРаздает
Сомунджу Отец: Тайна Любви / Somuncu Baba: Askin Sirri / 2016 / ЛМ (FavaidMedia) / WEBRip (1080p)1 1.4 ГБ 0 0 07.03.2024 в 19:18 rew8612010
Аллонзанфан / Allonsanfàn / 1974 / ПМ, СТ / BDRip (720p)0 13.65 ГБ 1 0 06.03.2024 в 02:06 Racketa
Верная река / Wierna rzeka / 1987 / СТ / WEB-DL (1080p)0 4.01 ГБ 2 0 04.03.2024 в 19:51 rew8612010
Сорая (Сорайя) (2 серии из 2) / Soraya / 2003 / ПМ / DVDRip38 2.67 ГБ 11 0 04.03.2024 в 16:09 Lem
Легенда о Лиззи Борден / The Legend of Lizzie Borden / 1975 / ЛО, СТ / DVDRip0 1.46 ГБ 1 0 03.03.2024 в 15:04 rew8612010
Хозяин холма Драгонард / Master of Dragonard Hill / 1987 / ПД / SATRip0 1.32 ГБ 0 0 03.03.2024 в 14:44 rew8612010
Аллонзанфан / Allonsanfàn / 1974 / ПМ, СТ / Blu-Ray Remux (1080p)0 28.04 ГБ 1 0 29.02.2024 в 20:31 LANCERX29R
Безумцы (Бесстрашные) / Deliler / 2018 / ПМ / Blu-Ray Remux (1080p)0 14.19 ГБ 0 0 26.02.2024 в 20:55 LANCERX29R
Джеронимо: Американская легенда / Geronimo: An American Legend / 1993 / ПМ, АП (Гаврилов) / Blu-Ray Remux (1080p)5 23.82 ГБ 1 0 26.02.2024 в 16:30 SpaceHD13
Слуга государев (Международная версия) / 2007 / РУ, СТ / BDRip (AVC)4 2.95 ГБ 2 0 24.02.2024 в 20:41 0ptimus
Нюрнбергский процесс / Judgment at Nuremberg / 1961 / ДБ / DVDRip43 2.74 ГБ 4 0 21.02.2024 в 01:25 dirt_devil
Мёртвые земли / The Dead Lands / 2014 / ПМ, ЛД, СТ / BDRip (1080p)1 13.69 ГБ 2 0 18.02.2024 в 12:43 LANCERX29R
Король и я / The King and I / 1956 / ПМ / DVD-90 6.91 ГБ 0 0 13.02.2024 в 23:17 kaa1958
Агора / Agora / 2009 / ДБ, СТ / Blu-Ray (1080p)8 45.09 ГБ 1 0 10.02.2024 в 23:08 encoderrr
Императрицы / 2023 / РУ / WEB-DLRip (AVC)0 2.56 ГБ 3 0 09.02.2024 в 12:13 Neadekvat62
Императрицы / 2023 / РУ / WEB-DLRip1 1.77 ГБ 1 0 09.02.2024 в 12:11 Neadekvat62
Императрицы / 2023 / РУ / WEB-DLRip27 1.46 ГБ 15 0 07.02.2024 в 21:16 sudar007
Императрицы / 2023 / РУ / WEB-DL (1080p)12 4.32 ГБ 11 0 07.02.2024 в 20:10 valera76
Анастасия Слуцкая (Княгиня Слуцкая) / 2003 / РУ / VP9 / WEBRip (1080p)1 1.29 ГБ 2 0 07.02.2024 в 15:09 vl2008
Самая прекрасная и удивительная история Франсуа Рабле / La tres excellente et divertissante histoire de Francois Rabelais / 2010 / СТ / DVDRip3 1.56 ГБ 2 0 04.02.2024 в 17:00 mikhailsch
Графиня Коссель (3 части из 3) / Hrabina Cosel / 1968 / ДБ / WEB-DL (1080p)0 4.23 ГБ 1 0 02.02.2024 в 20:14 LANCERX29R
Фараон / Faraon / 1966 / ПД / VHSRip8 1.86 ГБ 0 0 31.01.2024 в 23:38 Laprycis
Жерминаль / Germinal / 1993 / ЛО, СТ / BDRip (1080p)0 15.51 ГБ 1 0 31.01.2024 в 22:36 LANCERX29R
Бомарше / Beaumarchais l'insolent / 1996 / ПМ / HDTVRip (1080p)0 5.27 ГБ 2 0 31.01.2024 в 21:55 LANCERX29R
Фараон / Faraon / 1966 / ДБ / DVDRip16 2.05 ГБ 6 0 31.01.2024 в 17:04 Menestrel
1612: Хроники Смутного времени / 2007 / РУ / DVDRip5 1.46 ГБ 4 0 28.01.2024 в 14:14 GoldFlower
Зулусы (Битва у Роркс-Дрифт) / Zulu (The Battle of Rorke's Drift) / 1964 / 2 x ПМ / BDRip24 2.05 ГБ 8 0 27.01.2024 в 23:07 Lem
Эгон Шиле: Смерть и дева / Egon Schiele: Tod und Mädchen / 2016 / ЛО / BDRip (1080p)6 9.29 ГБ 0 0 26.01.2024 в 21:29 Мастер5
Арн: Рыцарь-тамплиер (2 фильма) / Arn - Tempelriddaren, Arn: Riket vid vagens slut / 2007-2008 / 2 x ПМ / BDRip (720p)1 13.75 ГБ 3 0 26.01.2024 в 21:14 misterhats
Битва у Ла-Платы / The Battle of the River Plate / 1956 / АП (Рябов) / BDRip (AVC)0 3.19 ГБ 0 0 24.01.2024 в 19:00 LANCERX29R
Новая земля / Nova zembla / 2011 / ПМ, ЛО / 3D (OU) / BDRip (1080p)1 10.45 ГБ 2 0 24.01.2024 в 10:19 Мастер5
Битва у Ла-Платы / The Battle of the River Plate / 1956 / АП (Рябов) / Blu-Ray (1080p)2 18.38 ГБ 1 0 22.01.2024 в 19:15 ULKESH
Ватерлоо / Waterloo / 1970 / ПМ, ПО, АП (Живов, Иванов), СТ / BDRip (1080p)0 15.69 ГБ 2 0 20.01.2024 в 13:57 LANCERX29R
Сны о России / 1992 / РУ / DVDRip5 2.06 ГБ 2 0 19.01.2024 в 23:07 boss89
Ниже холма 60 / Beneath Hill 60 / 2010 / ПД / Blu-Ray (1080p)1 22.18 ГБ 2 0 17.01.2024 в 13:28 Мастер5
1492: Завоевание рая / 1492: Conquest of paradise / 1992 / 2 x ПМ, ПД, АП (Гаврилов), СТ / BDRip (1080p)0 16.92 ГБ 4 0 15.01.2024 в 21:50 misterhats
Клеопатра / Cleopatra / 1963 / ДБ, ПМ, АП, СТ / Blu-Ray Remux (1080p)12 63.25 ГБ 3 1 13.01.2024 в 19:08 Marchik60
Калигула и Мессалина / Caligula et Messaline / 1981 / ПД / BDRip (AVC)1 2.58 ГБ 0 0 13.01.2024 в 17:54 msltel
Колонна / Columna (Columna lui Trajan) / 1968 / ДБ / WEB-DL (1080p)3 5.49 ГБ 3 0 13.01.2024 в 15:53 ice006
Инквизиция (Беатриче Ченчи) / Beatrice Cenci / 1969 / ПД, АП (Алексеев, Сонькин) / Blu-Ray Remux (1080p)0 26.45 ГБ 4 0 11.01.2024 в 09:02 sobmaster
Михай Храбрый (2 части из 2) / Mihai Viteazul / 1970 / ДБ / HDTV (1080i)1 14.17 ГБ 2 0 05.01.2024 в 14:51 ice006
За все нужно платить / Totul se plateste / 1986 / ЛД / HDTV (1080i)2 7.37 ГБ 0 0 04.01.2024 в 13:16 ice006
Бирюзовое ожерелье / Colierul de turcoaze / 1986 / ДБ / HDTV (1080i)1 7.95 ГБ 0 0 03.01.2024 в 16:09 ice006
Битва за Рим, Битва за Рим 2: Измена / Kampf um Rom I, Kampf um Rom II - Der Verrat / 1968-1969 / ДБ / HDTV (1080i)3 7.81 ГБ 1 0 02.01.2024 в 17:42 ice006
Серебряная маска / Masca de argint / 1985 / ДБ / HDTV (1080i)1 7.33 ГБ 0 0 02.01.2024 в 10:36 ice006
Звезды Эгера (2 серии из 2) / Egri csillagok / 1968 / ДБ / WEB-DL (1080p)1 5.02 ГБ 2 0 01.01.2024 в 14:45 ice006
Новые приключения Желтой Розы / Misterele Bucurestilor / 1983 / ДБ / HDTV (1080i)1 7.29 ГБ 0 1 01.01.2024 в 12:56 ice006
Желтая роза / Trandafirul galben / 1982 / ДБ / HDTV (1080i)3 8.18 ГБ 0 0 31.12.2023 в 05:23 ice006
Александр Великий / Alexander the Great / 1956 / 2 x ПМ, ПД / BDRip2 2.19 ГБ 0 0 30.12.2023 в 15:08 Kronz
Дорогой страданий и гнева / Drumul oaselor / 1980 / ДБ / HDTV (1080i)4 9.97 ГБ 0 0 30.12.2023 в 10:49 ice006